KTOA/TOA METAR and TAF weather

Enter ICAO airport designator
Station Type Date Time Source
KTOA METAR 2019/04/24 16:20 UTC NOAA

KTOA 241620Z 13011KT 6SM BR FEW010 SCT012 17/13 A3002


Station Type Date Time Source
KTOA Decoded METAR 2019/04/24 16:20 UTC NOAA

Torrance, Zamperini Field Airport, CA, United States (KTOA) 33-48N 118-20W
Apr 24, 2019 - 12:20 PM EDT / 2019.04.24 1620 UTC
Wind: from the SE (130 degrees) at 13 MPH (11 KT):0
Visibility: 6 mile(s):0
Sky conditions: partly cloudy
Weather: mist
Temperature: 62 F (17 C)
Dew Point: 55 F (13 C)
Relative Humidity: 77%
Pressure (altimeter): 30.02 in. Hg (1016 hPa)
ob: KTOA 241620Z 13011KT 6SM BR FEW010 SCT012 17/13 A3002
cycle: 16

Station Type Date Time Source
KTOA TAF UTC NOAA

Error!

Example: see airport list